Terminal Aerodrome Forecast
Issued by NWS

Home | Current Version | Previous Version | Text Only | Print | Product List | Glossary On
Versions: 1 2 3 4 5 6 7 8 9 10 11 12 13 14 15 16 17
000
FTUS45 KRIW 032320
TAFLND
TAF
KLND 032320Z 0400/0424 23008G15KT P6SM FEW110 BKN200
     FM040700 23007KT P6SM SCT200 WS010/24035KT
     FM041200 VRB06KT P6SM SCT250
     FM042000 19011G20KT P6SM FEW250=

USA.gov is the U.S. government's official web portal to all federal, state and local government web resources and services.